Updated07/07/2020 12:45 
 

GeoURL
free counters
Scottish Weather Network UK Weather Network Cumulus Top Weather Sites

Peebles Weather

Raw Data, Raw Data Expanded

Ignore low humidity and Dew Point values. Something wrong with the sensor.
Daytime temperatures are in direct sunlight so may be higher than official air temperature values.
As with any other website, we log your IP address and browser type in the server logs for diagnostic reasons. Cookies are used to record visit time and gauges preferences. No personal information is stored or processed.

All times are in local time (GMT, or BST in summer) unless specified.

2020/07/07 11:20 EGPH 071120Z 25009KT 9999 FEW024 SCT047 14/09 Q1016
16.4°C 0.0 mm 0.0 mm 0.0 mm 3.1 mph 5.4 mph 1011.9 hPa 59% X-Ray Solar Flare Level
Planetary K-Index
Planetary K-Index History
Station Warn Rain Snow Flood Wind Ltng Heat Cold Glob Moon Temp Rain 1h Rain Tue Rain 24h Wind 10m Gust Pressure Hum Proton Levels

m Waning Gibbous Comfortable F1-WSW F: A: Kp:0 SSN:0

Aircraft Info

Common Squawks

Info taken from user Softhead's post on Transmission1

RTL1090 Table Info

Screengrab from PlanePlotter Output

XHTML 1.1 | CSS